FFT3862 KSLC-KDEN
Flight info
| Callsign | FFT3862 |
|---|---|
| Flight time | 1h 2m |
| Altitude | 35000 |
| Route | RUGGD3 PERTY KAMPR LONGZ4 |
| Aircraft | A320/M-SDE3FGHIRWY/LB1 |
Departure
| Time | 2026-05-05 16:31 |
|---|---|
| Airport | Salt Lake City International Airport (KSLC) |
Arrival
| Time | 2026-05-05 17:34 |
|---|---|
| Airport | Denver International Airport (KDEN) |
| Time | Latitude | Longitude | Altitude | Speed | Heading |
|---|---|---|---|---|---|
| 2026-05-05 16:06 | 40.78919 | -111.99134 | 4231 ft | 0 kts | 175° |
| 2026-05-05 16:09 | 40.78925 | -111.99135 | 4231 ft | 3 kts | 173° |
| 2026-05-05 16:09 | 40.78948 | -111.99140 | 4231 ft | 3 kts | 161° |
| 2026-05-05 16:09 | 40.78970 | -111.99152 | 4231 ft | 3 kts | 147° |
| 2026-05-05 16:09 | 40.78988 | -111.99172 | 4231 ft | 3 kts | 125° |
| 2026-05-05 16:10 | 40.78996 | -111.99197 | 4230 ft | 3 kts | 86° |
| 2026-05-05 16:10 | 40.78996 | -111.99201 | 4231 ft | 0 kts | 84° |
| 2026-05-05 16:17 | 40.78997 | -111.99195 | 4231 ft | 3 kts | 84° |
| 2026-05-05 16:18 | 40.79006 | -111.99062 | 4231 ft | 7 kts | 85° |
| 2026-05-05 16:18 | 40.79009 | -111.99002 | 4231 ft | 6 kts | 85° |
| 2026-05-05 16:18 | 40.79063 | -111.98950 | 4231 ft | 7 kts | 354° |
| 2026-05-05 16:19 | 40.79105 | -111.98950 | 4231 ft | 7 kts | 13° |
| 2026-05-05 16:19 | 40.79133 | -111.98894 | 4230 ft | 9 kts | 83° |
| 2026-05-05 16:19 | 40.79146 | -111.98692 | 4231 ft | 13 kts | 85° |
| 2026-05-05 16:20 | 40.79165 | -111.98414 | 4231 ft | 17 kts | 85° |
| 2026-05-05 16:20 | 40.79183 | -111.98156 | 4231 ft | 12 kts | 85° |
| 2026-05-05 16:21 | 40.79199 | -111.97918 | 4231 ft | 14 kts | 85° |
| 2026-05-05 16:22 | 40.79333 | -111.97749 | 4231 ft | 17 kts | 354° |
| 2026-05-05 16:22 | 40.79542 | -111.97773 | 4230 ft | 14 kts | 355° |
| 2026-05-05 16:23 | 40.79722 | -111.97794 | 4230 ft | 17 kts | 354° |
| 2026-05-05 16:23 | 40.79830 | -111.97808 | 4231 ft | 15 kts | 355° |
| 2026-05-05 16:23 | 40.80008 | -111.97829 | 4231 ft | 11 kts | 356° |
| 2026-05-05 16:24 | 40.80078 | -111.97836 | 4231 ft | 9 kts | 355° |
| 2026-05-05 16:24 | 40.80139 | -111.97843 | 4231 ft | 12 kts | 355° |
| 2026-05-05 16:24 | 40.80293 | -111.97840 | 4231 ft | 9 kts | 15° |
| 2026-05-05 16:25 | 40.80358 | -111.97821 | 4232 ft | 9 kts | 6° |
| 2026-05-05 16:25 | 40.80488 | -111.97831 | 4231 ft | 10 kts | 355° |
| 2026-05-05 16:25 | 40.80552 | -111.97838 | 4230 ft | 9 kts | 355° |
| 2026-05-05 16:26 | 40.80621 | -111.97847 | 4231 ft | 1 kts | 354° |
| 2026-05-05 16:26 | 40.80657 | -111.97852 | 4231 ft | 5 kts | 355° |
| 2026-05-05 16:27 | 40.80696 | -111.97856 | 4230 ft | 5 kts | 355° |
| 2026-05-05 16:27 | 40.80727 | -111.97852 | 4231 ft | 4 kts | 24° |
| 2026-05-05 16:27 | 40.80747 | -111.97812 | 4230 ft | 8 kts | 73° |
| 2026-05-05 16:27 | 40.80737 | -111.97742 | 4229 ft | 7 kts | 98° |
| 2026-05-05 16:28 | 40.80733 | -111.97705 | 4229 ft | 2 kts | 117° |
| 2026-05-05 16:28 | 40.80719 | -111.97697 | 4229 ft | 3 kts | 170° |
| 2026-05-05 16:28 | 40.80712 | -111.97696 | 4229 ft | 0 kts | 174° |
| 2026-05-05 16:30 | 40.80695 | -111.97694 | 4229 ft | 10 kts | 174° |
| 2026-05-05 16:30 | 40.80421 | -111.97660 | 4233 ft | 74 kts | 175° |
| 2026-05-05 16:31 | 40.79692 | -111.97573 | 4229 ft | 134 kts | 175° |
| 2026-05-05 16:31 | 40.78620 | -111.97441 | 4406 ft | 166 kts | 174° |
| 2026-05-05 16:31 | 40.77481 | -111.97267 | 5160 ft | 169 kts | 176° |
| 2026-05-05 16:31 | 40.76301 | -111.97619 | 5693 ft | 188 kts | 211° |
| 2026-05-05 16:32 | 40.75419 | -111.98985 | 6036 ft | 210 kts | 246° |
| 2026-05-05 16:32 | 40.75251 | -112.01007 | 6352 ft | 241 kts | 277° |
| 2026-05-05 16:32 | 40.75967 | -112.03140 | 6700 ft | 272 kts | 307° |
| 2026-05-05 16:32 | 40.77501 | -112.04751 | 7223 ft | 292 kts | 335° |
| 2026-05-05 16:33 | 40.79456 | -112.05428 | 8200 ft | 293 kts | 349° |
| 2026-05-05 16:33 | 40.81473 | -112.05862 | 9206 ft | 294 kts | 351° |
| 2026-05-05 16:33 | 40.83484 | -112.05929 | 10187 ft | 294 kts | 8° |
| 2026-05-05 16:33 | 40.85510 | -112.05426 | 11039 ft | 299 kts | 11° |
| 2026-05-05 16:34 | 40.87603 | -112.04886 | 11617 ft | 314 kts | 11° |
| 2026-05-05 16:34 | 40.89790 | -112.04292 | 12179 ft | 327 kts | 11° |
| 2026-05-05 16:34 | 40.92094 | -112.03762 | 12555 ft | 345 kts | 8° |
| 2026-05-05 16:34 | 40.94507 | -112.03328 | 13156 ft | 353 kts | 7° |
| 2026-05-05 16:35 | 40.96957 | -112.02938 | 13903 ft | 357 kts | 6° |
| 2026-05-05 16:35 | 40.99440 | -112.02533 | 14603 ft | 361 kts | 9° |
| 2026-05-05 16:35 | 41.01835 | -112.01616 | 15255 ft | 366 kts | 23° |
| 2026-05-05 16:35 | 41.04027 | -111.99878 | 15903 ft | 372 kts | 39° |
| 2026-05-05 16:36 | 41.05737 | -111.97288 | 16558 ft | 378 kts | 58° |
| 2026-05-05 16:36 | 41.06725 | -111.94044 | 17195 ft | 385 kts | 77° |
| 2026-05-05 16:36 | 41.06817 | -111.90481 | 17821 ft | 393 kts | 97° |
| 2026-05-05 16:36 | 41.05999 | -111.87010 | 18401 ft | 398 kts | 111° |
| 2026-05-05 16:37 | 41.04916 | -111.83616 | 18922 ft | 402 kts | 112° |
| 2026-05-05 16:37 | 41.03819 | -111.80200 | 19456 ft | 405 kts | 111° |
| 2026-05-05 16:37 | 41.02724 | -111.76792 | 19950 ft | 410 kts | 112° |
| 2026-05-05 16:37 | 41.01606 | -111.73300 | 20448 ft | 414 kts | 112° |
| 2026-05-05 16:38 | 41.00478 | -111.69771 | 20956 ft | 418 kts | 112° |
| 2026-05-05 16:38 | 40.99346 | -111.66217 | 21478 ft | 421 kts | 112° |
| 2026-05-05 16:38 | 40.98204 | -111.62633 | 21967 ft | 425 kts | 112° |
| 2026-05-05 16:38 | 40.97051 | -111.59018 | 22465 ft | 428 kts | 112° |
| 2026-05-05 16:39 | 40.95887 | -111.55381 | 22971 ft | 431 kts | 112° |
| 2026-05-05 16:39 | 40.95110 | -111.52959 | 23316 ft | 433 kts | 112° |
| 2026-05-05 16:39 | 40.93545 | -111.48090 | 23892 ft | 436 kts | 112° |
| 2026-05-05 16:39 | 40.92355 | -111.44388 | 24310 ft | 439 kts | 112° |
| 2026-05-05 16:40 | 40.91237 | -111.40628 | 24732 ft | 440 kts | 106° |
| 2026-05-05 16:40 | 40.90548 | -111.36683 | 25119 ft | 441 kts | 97° |
| 2026-05-05 16:40 | 40.90084 | -111.32666 | 25522 ft | 444 kts | 97° |
| 2026-05-05 16:40 | 40.89613 | -111.28623 | 25943 ft | 446 kts | 97° |
| 2026-05-05 16:41 | 40.89298 | -111.25936 | 26210 ft | 447 kts | 98° |
| 2026-05-05 16:41 | 40.88818 | -111.21864 | 26588 ft | 450 kts | 98° |
| 2026-05-05 16:41 | 40.88331 | -111.17768 | 26989 ft | 452 kts | 98° |
| 2026-05-05 16:41 | 40.87678 | -111.12320 | 27476 ft | 456 kts | 98° |
| 2026-05-05 16:42 | 40.87179 | -111.08155 | 27740 ft | 461 kts | 98° |
| 2026-05-05 16:42 | 40.86676 | -111.03961 | 28075 ft | 464 kts | 98° |
| 2026-05-05 16:42 | 40.86339 | -111.01176 | 28338 ft | 464 kts | 98° |
| 2026-05-05 16:42 | 40.85830 | -110.96951 | 28668 ft | 467 kts | 98° |
| 2026-05-05 16:43 | 40.85317 | -110.92706 | 28980 ft | 470 kts | 98° |
| 2026-05-05 16:43 | 40.84797 | -110.88434 | 29328 ft | 472 kts | 98° |
| 2026-05-05 16:43 | 40.84104 | -110.82760 | 29797 ft | 473 kts | 98° |
| 2026-05-05 16:43 | 40.83577 | -110.78471 | 30159 ft | 474 kts | 98° |
| 2026-05-05 16:44 | 40.83219 | -110.75568 | 30397 ft | 474 kts | 98° |
| 2026-05-05 16:44 | 40.82691 | -110.71275 | 30773 ft | 473 kts | 98° |
| 2026-05-05 16:44 | 40.82172 | -110.67049 | 31148 ft | 473 kts | 98° |
| 2026-05-05 16:44 | 40.81644 | -110.62768 | 31531 ft | 472 kts | 98° |
| 2026-05-05 16:45 | 40.81117 | -110.58501 | 31913 ft | 471 kts | 98° |
| 2026-05-05 16:45 | 40.80587 | -110.54235 | 32311 ft | 470 kts | 98° |
| 2026-05-05 16:45 | 40.80055 | -110.49981 | 32698 ft | 470 kts | 98° |
| 2026-05-05 16:45 | 40.79521 | -110.45733 | 33079 ft | 470 kts | 99° |
| 2026-05-05 16:46 | 40.78983 | -110.41476 | 33390 ft | 471 kts | 99° |
| 2026-05-05 16:46 | 40.78441 | -110.37212 | 33736 ft | 471 kts | 99° |
| 2026-05-05 16:46 | 40.77900 | -110.32952 | 34035 ft | 471 kts | 99° |
| 2026-05-05 16:46 | 40.77360 | -110.28691 | 34361 ft | 471 kts | 99° |
| 2026-05-05 16:47 | 40.76827 | -110.24491 | 34657 ft | 471 kts | 99° |
| 2026-05-05 16:47 | 40.76286 | -110.20226 | 34803 ft | 472 kts | 99° |
| 2026-05-05 16:47 | 40.75195 | -110.11682 | 34833 ft | 473 kts | 100° |
| 2026-05-05 16:48 | 40.74116 | -110.03108 | 34823 ft | 475 kts | 98° |
| 2026-05-05 16:48 | 40.73427 | -109.94442 | 34831 ft | 477 kts | 95° |
| 2026-05-05 16:49 | 40.72977 | -109.85799 | 34827 ft | 476 kts | 94° |
| 2026-05-05 16:49 | 40.72478 | -109.77116 | 34820 ft | 475 kts | 95° |
| 2026-05-05 16:50 | 40.71882 | -109.68421 | 34821 ft | 477 kts | 96° |
| 2026-05-05 16:50 | 40.71249 | -109.59719 | 34827 ft | 477 kts | 96° |
| 2026-05-05 16:51 | 40.70627 | -109.51071 | 34834 ft | 477 kts | 96° |
| 2026-05-05 16:51 | 40.70020 | -109.42358 | 34833 ft | 477 kts | 96° |
| 2026-05-05 16:52 | 40.69406 | -109.33642 | 34827 ft | 478 kts | 96° |
| 2026-05-05 16:52 | 40.68772 | -109.24913 | 34829 ft | 479 kts | 97° |
| 2026-05-05 16:53 | 40.68127 | -109.16166 | 34816 ft | 480 kts | 96° |
| 2026-05-05 16:53 | 40.67482 | -109.07464 | 34847 ft | 481 kts | 97° |
| 2026-05-05 16:54 | 40.66855 | -108.98675 | 34835 ft | 483 kts | 96° |
| 2026-05-05 16:54 | 40.66303 | -108.89857 | 34859 ft | 483 kts | 96° |
| 2026-05-05 16:55 | 40.65762 | -108.81035 | 34868 ft | 483 kts | 96° |
| 2026-05-05 16:55 | 40.65198 | -108.72267 | 34856 ft | 484 kts | 97° |
| 2026-05-05 16:56 | 40.64611 | -108.63427 | 34859 ft | 485 kts | 97° |
| 2026-05-05 16:56 | 40.64016 | -108.54568 | 34858 ft | 486 kts | 97° |
| 2026-05-05 16:57 | 40.63414 | -108.45708 | 34862 ft | 485 kts | 97° |
| 2026-05-05 16:57 | 40.62803 | -108.36839 | 34867 ft | 487 kts | 96° |
| 2026-05-05 16:58 | 40.62189 | -108.28029 | 34863 ft | 487 kts | 96° |
| 2026-05-05 16:58 | 40.61562 | -108.19138 | 34858 ft | 488 kts | 97° |
| 2026-05-05 16:59 | 40.60924 | -108.10245 | 34860 ft | 489 kts | 97° |
| 2026-05-05 16:59 | 40.60290 | -108.01335 | 34862 ft | 490 kts | 96° |
| 2026-05-05 17:00 | 40.59658 | -107.92467 | 34868 ft | 491 kts | 97° |
| 2026-05-05 17:00 | 40.59005 | -107.83535 | 34876 ft | 490 kts | 97° |
| 2026-05-05 17:01 | 40.58328 | -107.74617 | 34897 ft | 491 kts | 97° |
| 2026-05-05 17:01 | 40.57663 | -107.65672 | 34912 ft | 491 kts | 97° |
| 2026-05-05 17:02 | 40.56995 | -107.56792 | 34924 ft | 491 kts | 98° |
| 2026-05-05 17:02 | 40.56525 | -107.50644 | 34927 ft | 492 kts | 98° |
| 2026-05-05 17:03 | 40.55847 | -107.41693 | 34927 ft | 493 kts | 97° |
| 2026-05-05 17:03 | 40.55170 | -107.32751 | 34933 ft | 493 kts | 98° |
| 2026-05-05 17:04 | 40.54476 | -107.23825 | 34933 ft | 494 kts | 98° |
| 2026-05-05 17:04 | 40.53768 | -107.14822 | 34928 ft | 496 kts | 98° |
| 2026-05-05 17:05 | 40.53059 | -107.05814 | 34916 ft | 495 kts | 98° |
| 2026-05-05 17:05 | 40.52341 | -106.96803 | 34886 ft | 497 kts | 99° |
| 2026-05-05 17:06 | 40.51606 | -106.87768 | 34831 ft | 499 kts | 99° |
| 2026-05-05 17:06 | 40.50859 | -106.78724 | 34916 ft | 503 kts | 99° |
| 2026-05-05 17:07 | 40.50100 | -106.69542 | 34721 ft | 510 kts | 99° |
| 2026-05-05 17:07 | 40.49714 | -106.64895 | 34387 ft | 512 kts | 99° |
| 2026-05-05 17:07 | 40.49325 | -106.60250 | 34122 ft | 510 kts | 99° |
| 2026-05-05 17:08 | 40.48932 | -106.55607 | 33033 ft | 514 kts | 99° |
| 2026-05-05 17:08 | 40.48535 | -106.50982 | 31953 ft | 504 kts | 99° |
| 2026-05-05 17:08 | 40.48149 | -106.46547 | 31172 ft | 488 kts | 98° |
| 2026-05-05 17:08 | 40.47763 | -106.42183 | 30325 ft | 477 kts | 98° |
| 2026-05-05 17:09 | 40.47375 | -106.37898 | 29938 ft | 466 kts | 98° |
| 2026-05-05 17:09 | 40.46992 | -106.33696 | 29311 ft | 461 kts | 98° |
| 2026-05-05 17:09 | 40.46610 | -106.29536 | 28737 ft | 456 kts | 98° |
| 2026-05-05 17:09 | 40.46237 | -106.25422 | 28163 ft | 451 kts | 98° |
| 2026-05-05 17:10 | 40.45868 | -106.21358 | 27598 ft | 446 kts | 98° |
| 2026-05-05 17:10 | 40.45500 | -106.17326 | 27019 ft | 442 kts | 98° |
| 2026-05-05 17:10 | 40.45138 | -106.13394 | 26552 ft | 438 kts | 98° |
| 2026-05-05 17:10 | 40.44781 | -106.09415 | 26294 ft | 440 kts | 97° |
| 2026-05-05 17:11 | 40.44431 | -106.05436 | 25972 ft | 438 kts | 97° |
| 2026-05-05 17:11 | 40.44087 | -106.01476 | 25650 ft | 436 kts | 97° |
| 2026-05-05 17:11 | 40.43746 | -105.97529 | 25344 ft | 434 kts | 97° |
| 2026-05-05 17:11 | 40.43405 | -105.93597 | 25033 ft | 433 kts | 97° |
| 2026-05-05 17:12 | 40.43035 | -105.89683 | 24739 ft | 431 kts | 99° |
| 2026-05-05 17:12 | 40.42542 | -105.85815 | 24320 ft | 428 kts | 102° |
| 2026-05-05 17:12 | 40.41945 | -105.81996 | 23906 ft | 426 kts | 103° |
| 2026-05-05 17:12 | 40.41308 | -105.78269 | 23558 ft | 423 kts | 104° |
| 2026-05-05 17:13 | 40.40654 | -105.74521 | 23123 ft | 420 kts | 104° |
| 2026-05-05 17:13 | 40.40013 | -105.70786 | 22733 ft | 418 kts | 103° |
| 2026-05-05 17:13 | 40.39395 | -105.67073 | 22356 ft | 414 kts | 103° |
| 2026-05-05 17:13 | 40.38805 | -105.63423 | 22057 ft | 406 kts | 103° |
| 2026-05-05 17:14 | 40.38233 | -105.59816 | 21560 ft | 403 kts | 102° |
| 2026-05-05 17:14 | 40.37667 | -105.56226 | 21036 ft | 401 kts | 102° |
| 2026-05-05 17:14 | 40.37099 | -105.52650 | 20535 ft | 399 kts | 103° |
| 2026-05-05 17:14 | 40.36539 | -105.49147 | 20105 ft | 397 kts | 103° |
| 2026-05-05 17:15 | 40.35972 | -105.45619 | 19616 ft | 394 kts | 103° |
| 2026-05-05 17:15 | 40.35406 | -105.42107 | 19194 ft | 392 kts | 103° |
| 2026-05-05 17:15 | 40.34786 | -105.38690 | 19079 ft | 379 kts | 110° |
| 2026-05-05 17:15 | 40.33756 | -105.35590 | 18849 ft | 366 kts | 123° |
| 2026-05-05 17:16 | 40.32317 | -105.32901 | 18621 ft | 358 kts | 131° |
| 2026-05-05 17:16 | 40.30794 | -105.30352 | 18383 ft | 352 kts | 130° |
| 2026-05-05 17:16 | 40.29300 | -105.27831 | 18138 ft | 349 kts | 131° |
| 2026-05-05 17:16 | 40.27816 | -105.25320 | 17879 ft | 349 kts | 130° |
| 2026-05-05 17:17 | 40.26334 | -105.22810 | 17621 ft | 347 kts | 131° |
| 2026-05-05 17:17 | 40.24879 | -105.20353 | 17368 ft | 346 kts | 131° |
| 2026-05-05 17:17 | 40.23406 | -105.17871 | 17108 ft | 344 kts | 131° |
| 2026-05-05 17:17 | 40.21941 | -105.15407 | 16849 ft | 342 kts | 131° |
| 2026-05-05 17:18 | 40.20482 | -105.12952 | 16592 ft | 341 kts | 131° |
| 2026-05-05 17:18 | 40.19031 | -105.10510 | 16337 ft | 339 kts | 131° |
| 2026-05-05 17:18 | 40.17586 | -105.08078 | 16082 ft | 338 kts | 131° |
| 2026-05-05 17:18 | 40.16146 | -105.05657 | 15835 ft | 337 kts | 131° |
| 2026-05-05 17:19 | 40.14708 | -105.03244 | 15586 ft | 335 kts | 133° |
| 2026-05-05 17:19 | 40.13118 | -105.01066 | 15320 ft | 330 kts | 139° |
| 2026-05-05 17:19 | 40.11510 | -104.98993 | 14999 ft | 328 kts | 139° |
| 2026-05-05 17:19 | 40.09890 | -104.96902 | 14752 ft | 327 kts | 139° |
| 2026-05-05 17:20 | 40.08278 | -104.94819 | 14512 ft | 326 kts | 139° |
| 2026-05-05 17:20 | 40.06670 | -104.92745 | 14297 ft | 325 kts | 139° |
| 2026-05-05 17:20 | 40.05063 | -104.90679 | 14064 ft | 324 kts | 140° |
| 2026-05-05 17:20 | 40.03454 | -104.88617 | 13836 ft | 324 kts | 140° |
| 2026-05-05 17:21 | 40.01854 | -104.86563 | 13577 ft | 322 kts | 140° |
| 2026-05-05 17:21 | 40.00264 | -104.84521 | 13309 ft | 319 kts | 140° |
| 2026-05-05 17:21 | 39.98639 | -104.82641 | 13051 ft | 312 kts | 149° |
| 2026-05-05 17:22 | 39.94750 | -104.80629 | 12527 ft | 296 kts | 176° |
| 2026-05-05 17:22 | 39.92711 | -104.80535 | 12275 ft | 291 kts | 185° |
| 2026-05-05 17:22 | 39.90688 | -104.80598 | 12020 ft | 290 kts | 184° |
| 2026-05-05 17:22 | 39.88678 | -104.80651 | 11764 ft | 288 kts | 184° |
| 2026-05-05 17:23 | 39.86678 | -104.80696 | 11474 ft | 287 kts | 184° |
| 2026-05-05 17:23 | 39.84740 | -104.80748 | 11338 ft | 278 kts | 183° |
| 2026-05-05 17:23 | 39.82833 | -104.80795 | 11221 ft | 270 kts | 184° |
| 2026-05-05 17:23 | 39.80983 | -104.80837 | 11099 ft | 262 kts | 183° |
| 2026-05-05 17:24 | 39.79227 | -104.80872 | 11005 ft | 244 kts | 183° |
| 2026-05-05 17:24 | 39.77564 | -104.80890 | 10992 ft | 235 kts | 182° |
| 2026-05-05 17:24 | 39.75916 | -104.80905 | 10773 ft | 239 kts | 182° |
| 2026-05-05 17:24 | 39.74268 | -104.80923 | 10524 ft | 235 kts | 181° |
| 2026-05-05 17:25 | 39.72639 | -104.80942 | 10282 ft | 232 kts | 181° |
| 2026-05-05 17:25 | 39.71572 | -104.80955 | 10147 ft | 230 kts | 181° |
| 2026-05-05 17:25 | 39.69471 | -104.81006 | 10018 ft | 227 kts | 181° |
| 2026-05-05 17:25 | 39.67891 | -104.81056 | 9984 ft | 228 kts | 181° |
| 2026-05-05 17:26 | 39.66305 | -104.81106 | 9987 ft | 228 kts | 181° |
| 2026-05-05 17:26 | 39.64724 | -104.81157 | 9987 ft | 227 kts | 181° |
| 2026-05-05 17:26 | 39.63146 | -104.81211 | 9999 ft | 227 kts | 181° |
| 2026-05-05 17:26 | 39.61563 | -104.81265 | 9999 ft | 228 kts | 181° |
| 2026-05-05 17:27 | 39.59982 | -104.81317 | 9998 ft | 227 kts | 181° |
| 2026-05-05 17:27 | 39.58412 | -104.81238 | 9995 ft | 227 kts | 166° |
| 2026-05-05 17:27 | 39.57057 | -104.80219 | 9998 ft | 231 kts | 134° |
| 2026-05-05 17:27 | 39.56329 | -104.78393 | 9997 ft | 238 kts | 105° |
| 2026-05-05 17:28 | 39.56129 | -104.76256 | 9948 ft | 240 kts | 94° |
| 2026-05-05 17:28 | 39.56529 | -104.74154 | 9661 ft | 246 kts | 63° |
| 2026-05-05 17:28 | 39.57606 | -104.72415 | 9355 ft | 249 kts | 50° |
| 2026-05-05 17:28 | 39.58824 | -104.70828 | 9078 ft | 247 kts | 47° |
| 2026-05-05 17:29 | 39.60051 | -104.69281 | 8964 ft | 245 kts | 47° |
| 2026-05-05 17:29 | 39.61268 | -104.67750 | 8977 ft | 245 kts | 45° |
| 2026-05-05 17:29 | 39.62719 | -104.66599 | 8995 ft | 249 kts | 20° |
| 2026-05-05 17:29 | 39.64407 | -104.66263 | 8987 ft | 250 kts | 2° |
| 2026-05-05 17:30 | 39.66161 | -104.66248 | 8804 ft | 252 kts | 2° |
| 2026-05-05 17:30 | 39.67903 | -104.66235 | 8480 ft | 249 kts | 3° |
| 2026-05-05 17:30 | 39.69616 | -104.66217 | 8149 ft | 240 kts | 3° |
| 2026-05-05 17:30 | 39.71256 | -104.66197 | 7835 ft | 231 kts | 4° |
| 2026-05-05 17:31 | 39.72846 | -104.66177 | 7526 ft | 224 kts | 4° |
| 2026-05-05 17:31 | 39.74339 | -104.66159 | 7256 ft | 204 kts | 4° |
| 2026-05-05 17:31 | 39.75710 | -104.66144 | 7000 ft | 190 kts | 6° |
| 2026-05-05 17:31 | 39.76966 | -104.66131 | 6779 ft | 169 kts | 5° |
| 2026-05-05 17:32 | 39.78073 | -104.66116 | 6543 ft | 154 kts | 6° |
| 2026-05-05 17:32 | 39.79104 | -104.66103 | 6291 ft | 144 kts | 7° |
| 2026-05-05 17:32 | 39.80097 | -104.66090 | 6058 ft | 143 kts | 5° |
| 2026-05-05 17:32 | 39.81094 | -104.66077 | 5841 ft | 142 kts | 5° |
| 2026-05-05 17:33 | 39.82082 | -104.66063 | 5651 ft | 142 kts | 5° |
| 2026-05-05 17:33 | 39.83075 | -104.66054 | 5467 ft | 143 kts | 3° |
| 2026-05-05 17:33 | 39.83980 | -104.66037 | 5418 ft | 111 kts | 0° |
| 2026-05-05 17:33 | 39.84583 | -104.66032 | 5413 ft | 65 kts | 0° |
| 2026-05-05 17:34 | 39.84939 | -104.66031 | 5402 ft | 33 kts | 360° |
| 2026-05-05 17:34 | 39.85128 | -104.66058 | 5394 ft | 27 kts | 346° |
| 2026-05-05 17:34 | 39.85287 | -104.66150 | 5390 ft | 19 kts | 333° |
| 2026-05-05 17:34 | 39.85340 | -104.66189 | 5392 ft | 0 kts | 330° |
| 2026-05-05 17:35 | 39.85343 | -104.66191 | 5399 ft | 3 kts | 330° |
| 2026-05-05 17:35 | 39.85370 | -104.66210 | 5394 ft | 4 kts | 334° |
| 2026-05-05 17:36 | 39.85425 | -104.66233 | 5392 ft | 9 kts | 348° |
| 2026-05-05 17:36 | 39.85488 | -104.66239 | 5389 ft | 9 kts | 360° |
| 2026-05-05 17:36 | 39.85547 | -104.66240 | 5392 ft | 9 kts | 352° |
| 2026-05-05 17:36 | 39.85583 | -104.66310 | 5392 ft | 11 kts | 273° |
| 2026-05-05 17:37 | 39.85585 | -104.66407 | 5387 ft | 11 kts | 271° |
| 2026-05-05 17:37 | 39.85585 | -104.66503 | 5383 ft | 11 kts | 270° |
| 2026-05-05 17:37 | 39.85586 | -104.66588 | 5382 ft | 8 kts | 270° |
| 2026-05-05 17:37 | 39.85586 | -104.66644 | 5382 ft | 5 kts | 270° |
| 2026-05-05 17:38 | 39.85586 | -104.66682 | 5382 ft | 7 kts | 270° |
| 2026-05-05 17:38 | 39.85586 | -104.66742 | 5382 ft | 5 kts | 269° |
| 2026-05-05 17:38 | 39.85581 | -104.66775 | 5382 ft | 2 kts | 252° |
| 2026-05-05 17:38 | 39.85577 | -104.66789 | 5382 ft | 3 kts | 250° |
| 2026-05-05 17:39 | 39.85568 | -104.66825 | 5382 ft | 4 kts | 254° |
| 2026-05-05 17:39 | 39.85556 | -104.66854 | 5383 ft | 4 kts | 225° |
| 2026-05-05 17:39 | 39.85530 | -104.66860 | 5383 ft | 5 kts | 181° |
| 2026-05-05 17:39 | 39.85497 | -104.66860 | 5384 ft | 4 kts | 180° |
| 2026-05-05 17:40 | 39.85480 | -104.66860 | 5381 ft | 2 kts | 180° |
| 2026-05-05 17:40 | 39.85471 | -104.66860 | 5384 ft | 1 kts | 180° |
| 2026-05-05 17:40 | 39.85469 | -104.66860 | 5380 ft | 0 kts | 180° |